Aviation Digital Data Service (ADDS)

Output produced by METARs form (0254 UTC 19 February 2019)
found at http://www.aviationweather.gov/metar/data/
 
Forecast for: VAAU (AURANGABAD AIRPO, IN)
Text: TAF VAAU 190200Z 1903/1912 00000KT 3000 HZ NSC
Forecast period: 0300 to 0400 UTC 19 February 2019
Forecast type: FROM: standard forecast or significant change
Winds: calm
Visibility: 1.86 miles (2.99 km)
Ceiling: unknown
Clouds: missing
Weather: HZ  (haze)
Text: BECMG 1904/1906 VRB03KT 4000 HZ
Forecast period: 0400 to 0700 UTC 19 February 2019
Forecast type: BECOMING: Conditions expected to become as follows by 0600 UTC 19 February 2019
Winds: variable direction winds at 3 MPH (3 knots; 1.5 m/s)
Visibility: 2.49 miles (4.01 km)
Ceiling: unknown
Clouds: missing
Weather: HZ  (haze)
Text: BECMG 1907/1909 27004KT 5000 HZ
Forecast period: 0700 to 1200 UTC 19 February 2019
Forecast type: BECOMING: Conditions expected to become as follows by 0900 UTC 19 February 2019
Winds: from the W (270 degrees) at 5 MPH (4 knots; 2.1 m/s)
Visibility: 3 miles (5 km)
Ceiling: unknown
Clouds: missing
Weather: HZ  (haze)